sensor_id;sensor_type;location;lat;lon;timestamp;P1;durP1;ratioP1;P2;durP2;ratioP2
11348;SDS011;5729;43.570;27.826;2022-12-11T00:01:22;18.17;;;5.43;;
11348;SDS011;5729;43.570;27.826;2022-12-11T00:03:47;18.05;;;5.90;;
11348;SDS011;5729;43.570;27.826;2022-12-11T00:06:14;27.58;;;5.75;;
11348;SDS011;5729;43.570;27.826;2022-12-11T00:08:41;13.25;;;5.32;;
11348;SDS011;5729;43.570;27.826;2022-12-11T00:11:07;20.85;;;6.60;;
11348;SDS011;5729;43.570;27.826;2022-12-11T00:13:35;20.50;;;6.35;;
11348;SDS011;5729;43.570;27.826;2022-12-11T00:16:01;18.33;;;5.88;;
11348;SDS011;5729;43.570;27.826;2022-12-11T00:18:26;12.18;;;5.00;;
11348;SDS011;5729;43.570;27.826;2022-12-11T00:20:52;22.92;;;5.65;;
11348;SDS011;5729;43.570;27.826;2022-12-11T00:23:17;16.67;;;5.35;;
11348;SDS011;5729;43.570;27.826;2022-12-11T00:25:44;17.20;;;6.00;;
11348;SDS011;5729;43.570;27.826;2022-12-11T00:28:11;11.68;;;4.57;;
11348;SDS011;5729;43.570;27.826;2022-12-11T00:30:39;20.95;;;6.20;;
11348;SDS011;5729;43.570;27.826;2022-12-11T00:33:06;15.98;;;4.68;;
11348;SDS011;5729;43.570;27.826;2022-12-11T00:35:32;15.93;;;5.95;;
11348;SDS011;5729;43.570;27.826;2022-12-11T00:37:58;17.85;;;6.32;;
11348;SDS011;5729;43.570;27.826;2022-12-11T00:40:23;16.05;;;5.63;;
11348;SDS011;5729;43.570;27.826;2022-12-11T00:42:49;13.48;;;5.70;;
11348;SDS011;5729;43.570;27.826;2022-12-11T00:45:14;13.43;;;5.68;;
11348;SDS011;5729;43.570;27.826;2022-12-11T00:47:39;19.42;;;5.80;;
11348;SDS011;5729;43.570;27.826;2022-12-11T00:50:05;15.60;;;5.25;;
11348;SDS011;5729;43.570;27.826;2022-12-11T00:52:31;15.10;;;5.43;;
11348;SDS011;5729;43.570;27.826;2022-12-11T00:54:56;17.50;;;5.95;;
11348;SDS011;5729;43.570;27.826;2022-12-11T00:57:22;16.48;;;6.10;;
11348;SDS011;5729;43.570;27.826;2022-12-11T00:59:47;22.35;;;6.88;;
11348;SDS011;5729;43.570;27.826;2022-12-11T01:02:13;19.23;;;6.10;;
11348;SDS011;5729;43.570;27.826;2022-12-11T01:04:38;18.17;;;6.40;;
11348;SDS011;5729;43.570;27.826;2022-12-11T01:07:04;18.40;;;6.90;;
11348;SDS011;5729;43.570;27.826;2022-12-11T01:09:29;17.67;;;6.55;;
11348;SDS011;5729;43.570;27.826;2022-12-11T01:12:13;16.17;;;5.78;;
11348;SDS011;5729;43.570;27.826;2022-12-11T01:14:38;17.85;;;6.55;;
11348;SDS011;5729;43.570;27.826;2022-12-11T01:17:04;18.73;;;6.07;;
11348;SDS011;5729;43.570;27.826;2022-12-11T01:19:29;28.25;;;6.55;;
11348;SDS011;5729;43.570;27.826;2022-12-11T01:21:55;18.92;;;6.10;;
11348;SDS011;5729;43.570;27.826;2022-12-11T01:24:20;17.23;;;5.53;;
11348;SDS011;5729;43.570;27.826;2022-12-11T01:26:46;18.48;;;5.95;;
11348;SDS011;5729;43.570;27.826;2022-12-11T01:29:11;16.85;;;6.38;;
11348;SDS011;5729;43.570;27.826;2022-12-11T01:31:36;18.25;;;6.32;;
11348;SDS011;5729;43.570;27.826;2022-12-11T01:34:02;21.77;;;6.40;;
11348;SDS011;5729;43.570;27.826;2022-12-11T01:36:28;28.05;;;6.90;;
11348;SDS011;5729;43.570;27.826;2022-12-11T01:38:53;19.98;;;6.75;;
11348;SDS011;5729;43.570;27.826;2022-12-11T01:41:19;19.27;;;6.22;;
11348;SDS011;5729;43.570;27.826;2022-12-11T01:43:58;27.20;;;7.22;;
11348;SDS011;5729;43.570;27.826;2022-12-11T01:46:52;16.23;;;6.75;;
11348;SDS011;5729;43.570;27.826;2022-12-11T01:49:19;15.27;;;5.90;;
11348;SDS011;5729;43.570;27.826;2022-12-11T01:54:48;19.52;;;5.75;;
11348;SDS011;5729;43.570;27.826;2022-12-11T01:57:15;12.00;;;4.72;;
11348;SDS011;5729;43.570;27.826;2022-12-11T01:59:42;15.77;;;5.63;;
11348;SDS011;5729;43.570;27.826;2022-12-11T02:04:46;20.38;;;6.60;;
11348;SDS011;5729;43.570;27.826;2022-12-11T02:07:13;14.63;;;5.78;;
11348;SDS011;5729;43.570;27.826;2022-12-11T02:09:40;17.95;;;6.15;;
11348;SDS011;5729;43.570;27.826;2022-12-11T02:20:25;14.45;;;6.00;;
11348;SDS011;5729;43.570;27.826;2022-12-11T02:28:33;21.17;;;6.50;;
11348;SDS011;5729;43.570;27.826;2022-12-11T02:31:03;19.23;;;6.13;;
11348;SDS011;5729;43.570;27.826;2022-12-11T02:33:43;15.98;;;6.00;;
11348;SDS011;5729;43.570;27.826;2022-12-11T02:36:11;16.77;;;6.70;;
11348;SDS011;5729;43.570;27.826;2022-12-11T02:38:42;25.13;;;6.97;;
11348;SDS011;5729;43.570;27.826;2022-12-11T02:41:14;18.58;;;6.65;;
11348;SDS011;5729;43.570;27.826;2022-12-11T02:43:43;19.55;;;7.13;;
11348;SDS011;5729;43.570;27.826;2022-12-11T02:46:09;19.85;;;8.10;;
11348;SDS011;5729;43.570;27.826;2022-12-11T02:48:36;22.63;;;6.40;;
11348;SDS011;5729;43.570;27.826;2022-12-11T02:51:04;18.90;;;6.90;;
11348;SDS011;5729;43.570;27.826;2022-12-11T02:53:33;17.58;;;7.32;;
11348;SDS011;5729;43.570;27.826;2022-12-11T02:56:07;24.08;;;7.63;;
11348;SDS011;5729;43.570;27.826;2022-12-11T02:58:49;23.02;;;6.60;;
11348;SDS011;5729;43.570;27.826;2022-12-11T03:01:20;15.48;;;7.35;;
11348;SDS011;5729;43.570;27.826;2022-12-11T03:03:46;22.05;;;7.25;;
11348;SDS011;5729;43.570;27.826;2022-12-11T03:06:12;26.60;;;7.40;;
11348;SDS011;5729;43.570;27.826;2022-12-11T03:08:42;22.83;;;6.97;;
11348;SDS011;5729;43.570;27.826;2022-12-11T03:11:09;22.80;;;6.88;;
11348;SDS011;5729;43.570;27.826;2022-12-11T03:13:36;24.67;;;7.20;;
11348;SDS011;5729;43.570;27.826;2022-12-11T03:16:09;18.85;;;7.07;;
11348;SDS011;5729;43.570;27.826;2022-12-11T03:21:15;19.98;;;7.22;;
11348;SDS011;5729;43.570;27.826;2022-12-11T03:23:49;22.90;;;8.43;;
11348;SDS011;5729;43.570;27.826;2022-12-11T03:26:22;26.77;;;8.27;;
11348;SDS011;5729;43.570;27.826;2022-12-11T03:28:56;18.88;;;8.20;;
11348;SDS011;5729;43.570;27.826;2022-12-11T03:31:28;22.00;;;8.07;;
11348;SDS011;5729;43.570;27.826;2022-12-11T03:34:02;18.73;;;8.52;;
11348;SDS011;5729;43.570;27.826;2022-12-11T03:36:35;18.05;;;7.90;;
11348;SDS011;5729;43.570;27.826;2022-12-11T03:39:12;21.38;;;8.02;;
11348;SDS011;5729;43.570;27.826;2022-12-11T03:41:41;22.38;;;7.40;;
11348;SDS011;5729;43.570;27.826;2022-12-11T03:44:09;15.48;;;6.45;;
11348;SDS011;5729;43.570;27.826;2022-12-11T03:46:36;23.05;;;7.13;;
11348;SDS011;5729;43.570;27.826;2022-12-11T03:49:12;30.15;;;8.00;;
11348;SDS011;5729;43.570;27.826;2022-12-11T03:51:52;27.10;;;8.27;;
11348;SDS011;5729;43.570;27.826;2022-12-11T03:54:21;20.30;;;8.70;;
11348;SDS011;5729;43.570;27.826;2022-12-11T03:56:48;25.80;;;9.23;;
11348;SDS011;5729;43.570;27.826;2022-12-11T03:59:18;21.73;;;8.15;;
11348;SDS011;5729;43.570;27.826;2022-12-11T04:01:43;19.85;;;8.77;;
11348;SDS011;5729;43.570;27.826;2022-12-11T04:04:09;21.42;;;8.80;;
11348;SDS011;5729;43.570;27.826;2022-12-11T04:06:34;28.10;;;9.52;;
11348;SDS011;5729;43.570;27.826;2022-12-11T04:09:00;20.02;;;7.82;;
11348;SDS011;5729;43.570;27.826;2022-12-11T04:11:25;23.15;;;8.85;;
11348;SDS011;5729;43.570;27.826;2022-12-11T04:14:01;30.30;;;8.95;;
11348;SDS011;5729;43.570;27.826;2022-12-11T04:16:46;22.38;;;8.85;;
11348;SDS011;5729;43.570;27.826;2022-12-11T04:19:12;21.85;;;8.57;;
11348;SDS011;5729;43.570;27.826;2022-12-11T04:21:56;22.90;;;8.93;;
11348;SDS011;5729;43.570;27.826;2022-12-11T04:24:40;23.02;;;8.30;;
11348;SDS011;5729;43.570;27.826;2022-12-11T04:27:05;24.45;;;8.82;;
11348;SDS011;5729;43.570;27.826;2022-12-11T04:29:31;21.55;;;9.30;;
11348;SDS011;5729;43.570;27.826;2022-12-11T04:31:56;21.45;;;8.85;;
11348;SDS011;5729;43.570;27.826;2022-12-11T04:34:21;16.23;;;8.90;;
11348;SDS011;5729;43.570;27.826;2022-12-11T04:36:47;21.67;;;8.98;;
11348;SDS011;5729;43.570;27.826;2022-12-11T04:39:12;20.13;;;9.98;;
11348;SDS011;5729;43.570;27.826;2022-12-11T04:41:39;26.73;;;9.30;;
11348;SDS011;5729;43.570;27.826;2022-12-11T04:44:05;23.45;;;9.07;;
11348;SDS011;5729;43.570;27.826;2022-12-11T04:46:31;27.77;;;9.10;;
11348;SDS011;5729;43.570;27.826;2022-12-11T04:48:57;18.38;;;8.52;;
11348;SDS011;5729;43.570;27.826;2022-12-11T04:51:24;20.48;;;8.45;;
11348;SDS011;5729;43.570;27.826;2022-12-11T04:53:51;24.27;;;9.40;;
11348;SDS011;5729;43.570;27.826;2022-12-11T04:56:16;22.35;;;9.25;;
11348;SDS011;5729;43.570;27.826;2022-12-11T04:58:42;24.83;;;9.35;;
11348;SDS011;5729;43.570;27.826;2022-12-11T05:01:10;18.77;;;9.57;;
11348;SDS011;5729;43.570;27.826;2022-12-11T05:03:37;23.38;;;9.45;;
11348;SDS011;5729;43.570;27.826;2022-12-11T05:06:02;24.45;;;9.68;;
11348;SDS011;5729;43.570;27.826;2022-12-11T05:08:28;28.25;;;10.40;;
11348;SDS011;5729;43.570;27.826;2022-12-11T05:10:58;31.23;;;10.75;;
11348;SDS011;5729;43.570;27.826;2022-12-11T05:13:25;23.30;;;9.60;;
11348;SDS011;5729;43.570;27.826;2022-12-11T05:15:52;23.83;;;10.48;;
11348;SDS011;5729;43.570;27.826;2022-12-11T05:18:18;25.33;;;10.07;;
11348;SDS011;5729;43.570;27.826;2022-12-11T05:20:43;31.30;;;11.20;;
11348;SDS011;5729;43.570;27.826;2022-12-11T05:23:09;19.20;;;9.90;;
11348;SDS011;5729;43.570;27.826;2022-12-11T05:25:34;30.80;;;10.75;;
11348;SDS011;5729;43.570;27.826;2022-12-11T05:28:00;25.65;;;9.93;;
11348;SDS011;5729;43.570;27.826;2022-12-11T05:30:25;25.98;;;10.48;;
11348;SDS011;5729;43.570;27.826;2022-12-11T05:32:51;21.30;;;11.05;;
11348;SDS011;5729;43.570;27.826;2022-12-11T05:35:16;33.95;;;11.30;;
11348;SDS011;5729;43.570;27.826;2022-12-11T05:37:42;26.83;;;11.73;;
11348;SDS011;5729;43.570;27.826;2022-12-11T05:40:07;20.33;;;11.02;;
11348;SDS011;5729;43.570;27.826;2022-12-11T05:42:33;24.38;;;11.45;;
11348;SDS011;5729;43.570;27.826;2022-12-11T05:44:59;24.30;;;9.73;;
11348;SDS011;5729;43.570;27.826;2022-12-11T05:47:24;23.08;;;10.85;;
11348;SDS011;5729;43.570;27.826;2022-12-11T05:49:50;27.52;;;10.20;;
11348;SDS011;5729;43.570;27.826;2022-12-11T05:52:16;15.88;;;8.30;;
11348;SDS011;5729;43.570;27.826;2022-12-11T05:54:41;23.50;;;9.40;;
11348;SDS011;5729;43.570;27.826;2022-12-11T05:57:07;18.65;;;9.38;;
11348;SDS011;5729;43.570;27.826;2022-12-11T05:59:32;20.38;;;9.43;;
11348;SDS011;5729;43.570;27.826;2022-12-11T06:01:57;22.17;;;9.23;;
11348;SDS011;5729;43.570;27.826;2022-12-11T06:04:23;20.63;;;7.45;;
11348;SDS011;5729;43.570;27.826;2022-12-11T06:06:48;18.02;;;9.32;;
11348;SDS011;5729;43.570;27.826;2022-12-11T06:09:14;24.23;;;8.40;;
11348;SDS011;5729;43.570;27.826;2022-12-11T06:11:40;18.42;;;8.38;;
11348;SDS011;5729;43.570;27.826;2022-12-11T06:14:06;20.58;;;7.43;;
11348;SDS011;5729;43.570;27.826;2022-12-11T06:16:33;15.30;;;7.85;;
11348;SDS011;5729;43.570;27.826;2022-12-11T06:18:59;14.43;;;7.03;;
11348;SDS011;5729;43.570;27.826;2022-12-11T06:21:28;16.95;;;8.25;;
11348;SDS011;5729;43.570;27.826;2022-12-11T06:23:55;18.33;;;7.72;;
11348;SDS011;5729;43.570;27.826;2022-12-11T06:26:22;19.20;;;7.90;;
11348;SDS011;5729;43.570;27.826;2022-12-11T06:28:49;14.65;;;6.50;;
11348;SDS011;5729;43.570;27.826;2022-12-11T06:31:14;17.33;;;7.07;;
11348;SDS011;5729;43.570;27.826;2022-12-11T06:33:40;21.83;;;7.57;;
11348;SDS011;5729;43.570;27.826;2022-12-11T06:36:10;18.25;;;7.00;;
11348;SDS011;5729;43.570;27.826;2022-12-11T06:38:43;18.73;;;7.13;;
11348;SDS011;5729;43.570;27.826;2022-12-11T06:41:09;17.67;;;7.47;;
11348;SDS011;5729;43.570;27.826;2022-12-11T06:43:35;23.75;;;7.40;;
11348;SDS011;5729;43.570;27.826;2022-12-11T06:46:03;24.48;;;9.07;;
11348;SDS011;5729;43.570;27.826;2022-12-11T06:48:32;21.75;;;7.15;;
11348;SDS011;5729;43.570;27.826;2022-12-11T06:50:58;18.20;;;8.13;;
11348;SDS011;5729;43.570;27.826;2022-12-11T06:53:23;18.75;;;7.88;;
11348;SDS011;5729;43.570;27.826;2022-12-11T06:55:49;18.13;;;6.10;;
11348;SDS011;5729;43.570;27.826;2022-12-11T06:58:14;22.17;;;7.65;;
11348;SDS011;5729;43.570;27.826;2022-12-11T07:00:40;22.67;;;7.15;;
11348;SDS011;5729;43.570;27.826;2022-12-11T07:03:06;18.17;;;8.10;;
11348;SDS011;5729;43.570;27.826;2022-12-11T07:05:32;20.45;;;6.82;;
11348;SDS011;5729;43.570;27.826;2022-12-11T07:07:57;25.20;;;7.55;;
11348;SDS011;5729;43.570;27.826;2022-12-11T07:10:23;22.23;;;6.20;;
11348;SDS011;5729;43.570;27.826;2022-12-11T07:12:53;22.23;;;8.18;;
11348;SDS011;5729;43.570;27.826;2022-12-11T07:15:19;16.67;;;5.85;;
11348;SDS011;5729;43.570;27.826;2022-12-11T07:17:44;20.15;;;7.35;;
11348;SDS011;5729;43.570;27.826;2022-12-11T07:20:10;24.80;;;7.60;;
11348;SDS011;5729;43.570;27.826;2022-12-11T07:22:36;23.23;;;7.20;;
11348;SDS011;5729;43.570;27.826;2022-12-11T07:25:01;20.30;;;5.93;;
11348;SDS011;5729;43.570;27.826;2022-12-11T07:27:27;20.63;;;6.88;;
11348;SDS011;5729;43.570;27.826;2022-12-11T07:29:54;17.95;;;6.88;;
11348;SDS011;5729;43.570;27.826;2022-12-11T07:32:19;12.57;;;5.00;;
11348;SDS011;5729;43.570;27.826;2022-12-11T07:34:47;18.35;;;6.75;;
11348;SDS011;5729;43.570;27.826;2022-12-11T07:37:13;17.77;;;6.20;;
11348;SDS011;5729;43.570;27.826;2022-12-11T07:39:39;19.85;;;6.65;;
11348;SDS011;5729;43.570;27.826;2022-12-11T07:42:04;23.00;;;6.70;;
11348;SDS011;5729;43.570;27.826;2022-12-11T07:44:29;21.27;;;6.88;;
11348;SDS011;5729;43.570;27.826;2022-12-11T07:46:55;18.13;;;6.50;;
11348;SDS011;5729;43.570;27.826;2022-12-11T07:49:20;22.85;;;6.47;;
11348;SDS011;5729;43.570;27.826;2022-12-11T07:51:46;25.63;;;7.75;;
11348;SDS011;5729;43.570;27.826;2022-12-11T07:54:12;18.55;;;6.40;;
11348;SDS011;5729;43.570;27.826;2022-12-11T07:56:40;19.55;;;6.65;;
11348;SDS011;5729;43.570;27.826;2022-12-11T07:59:09;13.65;;;6.30;;
11348;SDS011;5729;43.570;27.826;2022-12-11T08:01:35;20.50;;;5.55;;
11348;SDS011;5729;43.570;27.826;2022-12-11T08:04:02;26.90;;;6.45;;
11348;SDS011;5729;43.570;27.826;2022-12-11T08:06:30;27.15;;;6.20;;
11348;SDS011;5729;43.570;27.826;2022-12-11T08:08:57;18.45;;;6.43;;
11348;SDS011;5729;43.570;27.826;2022-12-11T08:11:24;17.52;;;4.93;;
11348;SDS011;5729;43.570;27.826;2022-12-11T08:13:50;14.80;;;6.40;;
11348;SDS011;5729;43.570;27.826;2022-12-11T08:16:16;20.70;;;5.68;;
11348;SDS011;5729;43.570;27.826;2022-12-11T08:18:42;17.92;;;5.57;;
11348;SDS011;5729;43.570;27.826;2022-12-11T08:21:11;18.85;;;5.00;;
11348;SDS011;5729;43.570;27.826;2022-12-11T08:23:41;18.35;;;6.45;;
11348;SDS011;5729;43.570;27.826;2022-12-11T08:26:08;20.85;;;6.18;;
11348;SDS011;5729;43.570;27.826;2022-12-11T08:28:36;14.93;;;6.00;;
11348;SDS011;5729;43.570;27.826;2022-12-11T08:31:03;17.98;;;7.38;;
11348;SDS011;5729;43.570;27.826;2022-12-11T08:33:30;15.50;;;5.80;;
11348;SDS011;5729;43.570;27.826;2022-12-11T08:35:56;13.00;;;5.28;;
11348;SDS011;5729;43.570;27.826;2022-12-11T08:38:21;16.95;;;5.82;;
11348;SDS011;5729;43.570;27.826;2022-12-11T08:40:47;22.48;;;5.50;;
11348;SDS011;5729;43.570;27.826;2022-12-11T08:43:12;19.00;;;4.40;;
11348;SDS011;5729;43.570;27.826;2022-12-11T08:45:38;17.45;;;4.72;;
11348;SDS011;5729;43.570;27.826;2022-12-11T08:48:03;20.48;;;5.00;;
11348;SDS011;5729;43.570;27.826;2022-12-11T08:50:29;16.65;;;4.82;;
11348;SDS011;5729;43.570;27.826;2022-12-11T08:52:55;11.70;;;4.95;;
11348;SDS011;5729;43.570;27.826;2022-12-11T08:55:20;21.15;;;4.93;;
11348;SDS011;5729;43.570;27.826;2022-12-11T08:57:46;15.30;;;4.75;;
11348;SDS011;5729;43.570;27.826;2022-12-11T09:00:12;23.75;;;4.95;;
11348;SDS011;5729;43.570;27.826;2022-12-11T09:02:37;17.88;;;4.82;;
11348;SDS011;5729;43.570;27.826;2022-12-11T09:05:04;18.65;;;4.20;;
11348;SDS011;5729;43.570;27.826;2022-12-11T09:07:33;14.10;;;4.20;;
11348;SDS011;5729;43.570;27.826;2022-12-11T09:10:00;12.57;;;2.80;;
11348;SDS011;5729;43.570;27.826;2022-12-11T09:12:26;16.38;;;4.07;;
11348;SDS011;5729;43.570;27.826;2022-12-11T09:14:52;14.63;;;4.47;;
11348;SDS011;5729;43.570;27.826;2022-12-11T09:17:18;18.50;;;4.57;;
11348;SDS011;5729;43.570;27.826;2022-12-11T09:19:43;17.58;;;3.70;;
11348;SDS011;5729;43.570;27.826;2022-12-11T09:22:09;13.07;;;3.60;;
11348;SDS011;5729;43.570;27.826;2022-12-11T09:24:35;12.15;;;4.82;;
11348;SDS011;5729;43.570;27.826;2022-12-11T09:27:02;15.80;;;4.32;;
11348;SDS011;5729;43.570;27.826;2022-12-11T09:29:28;12.20;;;4.00;;
11348;SDS011;5729;43.570;27.826;2022-12-11T09:31:54;15.52;;;3.85;;
11348;SDS011;5729;43.570;27.826;2022-12-11T09:34:19;16.02;;;4.03;;
11348;SDS011;5729;43.570;27.826;2022-12-11T09:36:46;14.23;;;4.00;;
11348;SDS011;5729;43.570;27.826;2022-12-11T09:39:12;13.15;;;3.30;;
11348;SDS011;5729;43.570;27.826;2022-12-11T09:46:58;11.20;;;3.83;;
11348;SDS011;5729;43.570;27.826;2022-12-11T09:49:30;17.77;;;4.40;;
11348;SDS011;5729;43.570;27.826;2022-12-11T09:54:30;15.60;;;4.35;;
11348;SDS011;5729;43.570;27.826;2022-12-11T09:57:31;14.85;;;3.85;;
11348;SDS011;5729;43.570;27.826;2022-12-11T10:00:03;10.65;;;3.58;;
11348;SDS011;5729;43.570;27.826;2022-12-11T10:13:47;11.60;;;3.88;;
11348;SDS011;5729;43.570;27.826;2022-12-11T10:19:04;14.27;;;3.55;;
11348;SDS011;5729;43.570;27.826;2022-12-11T10:21:35;18.13;;;3.78;;
11348;SDS011;5729;43.570;27.826;2022-12-11T10:24:04;14.93;;;3.70;;
11348;SDS011;5729;43.570;27.826;2022-12-11T10:26:38;13.85;;;3.00;;
11348;SDS011;5729;43.570;27.826;2022-12-11T10:29:05;14.93;;;3.17;;
11348;SDS011;5729;43.570;27.826;2022-12-11T10:31:57;16.80;;;3.42;;
11348;SDS011;5729;43.570;27.826;2022-12-11T10:34:35;13.88;;;3.75;;
11348;SDS011;5729;43.570;27.826;2022-12-11T10:37:04;16.17;;;3.88;;
11348;SDS011;5729;43.570;27.826;2022-12-11T10:39:30;7.28;;;2.67;;
11348;SDS011;5729;43.570;27.826;2022-12-11T10:41:56;10.70;;;2.95;;
11348;SDS011;5729;43.570;27.826;2022-12-11T10:44:23;9.40;;;2.58;;
11348;SDS011;5729;43.570;27.826;2022-12-11T10:47:16;10.88;;;2.70;;
11348;SDS011;5729;43.570;27.826;2022-12-11T10:49:42;13.07;;;3.45;;
11348;SDS011;5729;43.570;27.826;2022-12-11T10:52:22;13.38;;;3.15;;
11348;SDS011;5729;43.570;27.826;2022-12-11T10:54:53;9.80;;;2.35;;
11348;SDS011;5729;43.570;27.826;2022-12-11T10:57:27;14.43;;;2.75;;
11348;SDS011;5729;43.570;27.826;2022-12-11T10:59:55;11.23;;;3.60;;
11348;SDS011;5729;43.570;27.826;2022-12-11T11:05:10;8.13;;;2.67;;
11348;SDS011;5729;43.570;27.826;2022-12-11T11:08:01;8.45;;;2.75;;
11348;SDS011;5729;43.570;27.826;2022-12-11T11:10:51;10.27;;;2.72;;
11348;SDS011;5729;43.570;27.826;2022-12-11T11:13:24;9.98;;;2.65;;
11348;SDS011;5729;43.570;27.826;2022-12-11T11:16:02;6.13;;;2.08;;
11348;SDS011;5729;43.570;27.826;2022-12-11T11:18:30;6.40;;;2.20;;
11348;SDS011;5729;43.570;27.826;2022-12-11T11:20:56;13.43;;;2.67;;
11348;SDS011;5729;43.570;27.826;2022-12-11T11:23:22;7.55;;;2.72;;
11348;SDS011;5729;43.570;27.826;2022-12-11T11:28:18;7.30;;;2.22;;
11348;SDS011;5729;43.570;27.826;2022-12-11T11:30:57;11.90;;;2.88;;
11348;SDS011;5729;43.570;27.826;2022-12-11T11:33:31;11.50;;;2.90;;
11348;SDS011;5729;43.570;27.826;2022-12-11T11:36:00;6.70;;;2.45;;
11348;SDS011;5729;43.570;27.826;2022-12-11T11:43:46;11.00;;;2.78;;
11348;SDS011;5729;43.570;27.826;2022-12-11T11:46:25;11.82;;;2.80;;
11348;SDS011;5729;43.570;27.826;2022-12-11T11:51:54;8.18;;;2.35;;
11348;SDS011;5729;43.570;27.826;2022-12-11T12:00:24;9.10;;;2.13;;
11348;SDS011;5729;43.570;27.826;2022-12-11T12:02:56;6.55;;;2.45;;
11348;SDS011;5729;43.570;27.826;2022-12-11T12:05:26;6.22;;;2.13;;
11348;SDS011;5729;43.570;27.826;2022-12-11T12:08:16;16.30;;;3.70;;
11348;SDS011;5729;43.570;27.826;2022-12-11T12:11:04;8.52;;;2.20;;
11348;SDS011;5729;43.570;27.826;2022-12-11T12:19:11;13.02;;;3.28;;
11348;SDS011;5729;43.570;27.826;2022-12-11T12:21:46;8.27;;;2.72;;
11348;SDS011;5729;43.570;27.826;2022-12-11T12:24:23;14.40;;;3.22;;
11348;SDS011;5729;43.570;27.826;2022-12-11T12:27:12;11.60;;;2.95;;
11348;SDS011;5729;43.570;27.826;2022-12-11T12:35:36;11.63;;;2.70;;
11348;SDS011;5729;43.570;27.826;2022-12-11T12:38:41;15.82;;;3.63;;
11348;SDS011;5729;43.570;27.826;2022-12-11T12:44:11;12.55;;;3.22;;
11348;SDS011;5729;43.570;27.826;2022-12-11T12:49:27;8.90;;;3.45;;
11348;SDS011;5729;43.570;27.826;2022-12-11T12:51:59;17.80;;;3.70;;
11348;SDS011;5729;43.570;27.826;2022-12-11T12:54:26;15.05;;;3.92;;
11348;SDS011;5729;43.570;27.826;2022-12-11T12:56:56;11.05;;;3.10;;
11348;SDS011;5729;43.570;27.826;2022-12-11T12:59:23;14.95;;;4.15;;
11348;SDS011;5729;43.570;27.826;2022-12-11T13:01:53;13.50;;;3.38;;
11348;SDS011;5729;43.570;27.826;2022-12-11T13:04:37;15.75;;;3.13;;
11348;SDS011;5729;43.570;27.826;2022-12-11T13:07:15;13.07;;;3.30;;
11348;SDS011;5729;43.570;27.826;2022-12-11T13:10:06;16.55;;;3.80;;
11348;SDS011;5729;43.570;27.826;2022-12-11T13:12:49;12.95;;;2.88;;
11348;SDS011;5729;43.570;27.826;2022-12-11T13:17:56;12.38;;;3.17;;
11348;SDS011;5729;43.570;27.826;2022-12-11T13:20:23;18.65;;;3.80;;
11348;SDS011;5729;43.570;27.826;2022-12-11T13:25:49;12.18;;;3.63;;
11348;SDS011;5729;43.570;27.826;2022-12-11T13:31:05;13.70;;;4.80;;
11348;SDS011;5729;43.570;27.826;2022-12-11T13:33:39;14.13;;;4.00;;
11348;SDS011;5729;43.570;27.826;2022-12-11T13:39:01;10.75;;;3.38;;
11348;SDS011;5729;43.570;27.826;2022-12-11T13:41:42;11.70;;;3.17;;
11348;SDS011;5729;43.570;27.826;2022-12-11T13:44:15;22.88;;;4.55;;
11348;SDS011;5729;43.570;27.826;2022-12-11T13:46:45;17.73;;;4.43;;
11348;SDS011;5729;43.570;27.826;2022-12-11T13:49:17;17.67;;;4.68;;
11348;SDS011;5729;43.570;27.826;2022-12-11T13:51:50;15.63;;;4.78;;
11348;SDS011;5729;43.570;27.826;2022-12-11T13:54:25;20.08;;;4.90;;
11348;SDS011;5729;43.570;27.826;2022-12-11T13:57:34;21.25;;;5.10;;
11348;SDS011;5729;43.570;27.826;2022-12-11T13:59:46;15.98;;;5.05;;
11348;SDS011;5729;43.570;27.826;2022-12-11T14:02:17;19.63;;;5.03;;
11348;SDS011;5729;43.570;27.826;2022-12-11T14:04:43;17.67;;;4.60;;
11348;SDS011;5729;43.570;27.826;2022-12-11T14:07:10;20.42;;;5.65;;
11348;SDS011;5729;43.570;27.826;2022-12-11T14:09:41;17.15;;;5.30;;
11348;SDS011;5729;43.570;27.826;2022-12-11T14:12:14;19.17;;;5.30;;
11348;SDS011;5729;43.570;27.826;2022-12-11T14:14:49;23.95;;;5.28;;
11348;SDS011;5729;43.570;27.826;2022-12-11T14:17:21;21.50;;;5.65;;
11348;SDS011;5729;43.570;27.826;2022-12-11T14:19:50;21.67;;;5.30;;
11348;SDS011;5729;43.570;27.826;2022-12-11T14:22:20;22.85;;;5.82;;
11348;SDS011;5729;43.570;27.826;2022-12-11T14:24:52;20.17;;;5.13;;
11348;SDS011;5729;43.570;27.826;2022-12-11T14:27:20;23.40;;;5.72;;
11348;SDS011;5729;43.570;27.826;2022-12-11T14:29:47;28.05;;;6.55;;
11348;SDS011;5729;43.570;27.826;2022-12-11T14:32:20;19.13;;;5.97;;
11348;SDS011;5729;43.570;27.826;2022-12-11T14:34:55;25.65;;;7.68;;
11348;SDS011;5729;43.570;27.826;2022-12-11T14:37:21;25.77;;;7.45;;
11348;SDS011;5729;43.570;27.826;2022-12-11T14:42:30;40.55;;;8.73;;
11348;SDS011;5729;43.570;27.826;2022-12-11T14:45:52;21.75;;;6.82;;
11348;SDS011;5729;43.570;27.826;2022-12-11T14:48:01;28.33;;;5.47;;
11348;SDS011;5729;43.570;27.826;2022-12-11T14:53:16;52.42;;;18.75;;
11348;SDS011;5729;43.570;27.826;2022-12-11T14:55:46;25.27;;;5.60;;
11348;SDS011;5729;43.570;27.826;2022-12-11T14:58:14;23.25;;;5.85;;
11348;SDS011;5729;43.570;27.826;2022-12-11T15:03:23;23.83;;;6.18;;
11348;SDS011;5729;43.570;27.826;2022-12-11T15:08:48;23.23;;;6.57;;
11348;SDS011;5729;43.570;27.826;2022-12-11T15:11:10;36.13;;;9.68;;
11348;SDS011;5729;43.570;27.826;2022-12-11T15:13:57;26.67;;;6.70;;
11348;SDS011;5729;43.570;27.826;2022-12-11T15:16:25;26.00;;;7.82;;
11348;SDS011;5729;43.570;27.826;2022-12-11T15:18:55;28.33;;;5.13;;
11348;SDS011;5729;43.570;27.826;2022-12-11T15:21:29;22.70;;;5.55;;
11348;SDS011;5729;43.570;27.826;2022-12-11T15:23:58;26.15;;;7.22;;
11348;SDS011;5729;43.570;27.826;2022-12-11T15:26:33;24.65;;;6.32;;
11348;SDS011;5729;43.570;27.826;2022-12-11T15:29:05;30.10;;;8.07;;
11348;SDS011;5729;43.570;27.826;2022-12-11T15:31:56;29.08;;;6.43;;
11348;SDS011;5729;43.570;27.826;2022-12-11T15:34:23;37.40;;;7.10;;
11348;SDS011;5729;43.570;27.826;2022-12-11T15:36:49;27.60;;;6.43;;
11348;SDS011;5729;43.570;27.826;2022-12-11T15:39:14;21.50;;;5.43;;
11348;SDS011;5729;43.570;27.826;2022-12-11T15:41:40;25.88;;;6.00;;
11348;SDS011;5729;43.570;27.826;2022-12-11T15:44:08;26.02;;;6.22;;
11348;SDS011;5729;43.570;27.826;2022-12-11T15:46:42;18.13;;;5.03;;
11348;SDS011;5729;43.570;27.826;2022-12-11T15:49:10;29.27;;;5.72;;
11348;SDS011;5729;43.570;27.826;2022-12-11T15:51:37;19.83;;;5.32;;
11348;SDS011;5729;43.570;27.826;2022-12-11T15:54:02;22.88;;;5.75;;
11348;SDS011;5729;43.570;27.826;2022-12-11T15:56:28;30.20;;;5.35;;
11348;SDS011;5729;43.570;27.826;2022-12-11T15:58:54;28.58;;;6.20;;
11348;SDS011;5729;43.570;27.826;2022-12-11T16:01:23;27.67;;;5.82;;
11348;SDS011;5729;43.570;27.826;2022-12-11T16:03:48;21.08;;;5.97;;
11348;SDS011;5729;43.570;27.826;2022-12-11T16:06:14;26.65;;;5.45;;
11348;SDS011;5729;43.570;27.826;2022-12-11T16:08:39;28.40;;;6.35;;
11348;SDS011;5729;43.570;27.826;2022-12-11T16:11:05;25.20;;;5.85;;
11348;SDS011;5729;43.570;27.826;2022-12-11T16:13:30;28.40;;;5.68;;
11348;SDS011;5729;43.570;27.826;2022-12-11T16:15:56;23.98;;;5.30;;
11348;SDS011;5729;43.570;27.826;2022-12-11T16:18:22;26.05;;;5.90;;
11348;SDS011;5729;43.570;27.826;2022-12-11T16:20:48;24.75;;;6.60;;
11348;SDS011;5729;43.570;27.826;2022-12-11T16:23:16;24.60;;;5.50;;
11348;SDS011;5729;43.570;27.826;2022-12-11T16:25:43;26.42;;;8.20;;
11348;SDS011;5729;43.570;27.826;2022-12-11T16:28:10;43.30;;;13.52;;
11348;SDS011;5729;43.570;27.826;2022-12-11T16:30:38;32.05;;;7.72;;